createdAt,value
2022-09-07T00:00:10.235Z,98026.72
2022-09-07T00:01:41.079Z,98027.33
2022-09-07T00:02:48.564Z,98032.90
2022-09-07T00:04:05.889Z,98038.50
2022-09-07T00:05:15.439Z,98038.38
2022-09-07T00:06:25.432Z,98036.59
2022-09-07T00:07:31.892Z,98035.69
2022-09-07T00:08:37.404Z,98041.05
2022-09-07T00:09:43.686Z,98037.71
2022-09-07T00:10:59.823Z,98039.41
2022-09-07T00:12:13.055Z,98042.64
2022-09-07T00:13:23.490Z,98039.65
2022-09-07T00:14:30.030Z,98043.36
2022-09-07T00:15:41.329Z,98042.73
2022-09-07T00:16:47.149Z,98035.84
2022-09-07T00:17:54.699Z,98042.09
2022-09-07T00:19:01.560Z,98042.23
2022-09-07T00:20:08.397Z,98043.14
2022-09-07T00:21:16.749Z,98041.45
2022-09-07T00:22:25.145Z,98039.02
2022-09-07T00:23:31.756Z,98039.73
2022-09-07T00:24:38.708Z,98036.77
2022-09-07T00:25:44.778Z,98037.98
2022-09-07T00:26:50.702Z,98038.27
2022-09-07T00:27:57.681Z,98038.82
2022-09-07T00:29:03.703Z,98041.33
2022-09-07T00:30:11.590Z,98039.30
2022-09-07T00:31:21.737Z,98042.04
2022-09-07T00:32:28.450Z,98045.08
2022-09-07T00:33:34.543Z,98048.31
2022-09-07T00:34:41.414Z,98053.98
2022-09-07T00:35:48.881Z,98053.45
2022-09-07T00:36:54.832Z,98055.34
2022-09-07T00:38:01.034Z,98057.15
2022-09-07T00:39:08.031Z,98053.80
2022-09-07T00:40:15.066Z,98057.98
2022-09-07T00:41:22.071Z,98061.17
2022-09-07T00:42:29.899Z,98060.88
2022-09-07T00:43:43.911Z,98058.11
2022-09-07T00:44:59.037Z,98065.26
2022-09-07T00:46:06.211Z,98063.89
2022-09-07T00:47:15.059Z,98063.14
2022-09-07T00:48:22.894Z,98068.17
2022-09-07T00:49:28.702Z,98069.52
2022-09-07T00:50:50.637Z,98065.38
2022-09-07T00:51:59.738Z,98068.95
2022-09-07T00:53:15.690Z,98073.55
2022-09-07T00:54:25.950Z,98072.69
2022-09-07T00:55:32.581Z,98075.19
2022-09-07T00:56:39.721Z,98076.10
2022-09-07T00:57:48.727Z,98074.10
2022-09-07T00:58:54.249Z,98074.70
2022-09-07T01:00:00.203Z,98080.02
2022-09-07T01:01:06.278Z,98083.05
2022-09-07T01:02:13.036Z,98079.35
2022-09-07T01:03:19.951Z,98085.46
2022-09-07T01:04:26.552Z,98087.95
2022-09-07T01:05:47.764Z,98091.67
2022-09-07T01:06:54.174Z,98093.20
2022-09-07T01:08:00.341Z,98097.46
2022-09-07T01:09:11.855Z,98097.95
2022-09-07T01:10:19.403Z,98098.32
2022-09-07T01:11:25.572Z,98099.33
2022-09-07T01:12:32.104Z,98102.34
2022-09-07T01:13:41.029Z,98102.02
2022-09-07T01:14:52.815Z,98104.20
2022-09-07T01:16:07.339Z,98105.41
2022-09-07T01:17:48.988Z,98106.86
2022-09-07T01:19:10.829Z,98107.40
2022-09-07T01:20:33.670Z,98108.67
2022-09-07T01:22:13.821Z,98111.18
2022-09-07T01:23:39.290Z,98115.66
2022-09-07T01:25:09.507Z,98119.54
2022-09-07T01:26:30.909Z,98117.34
2022-09-07T01:28:21.928Z,98117.73
2022-09-07T01:30:04.957Z,98122.03
2022-09-07T01:31:32.763Z,98124.73
2022-09-07T01:33:03.937Z,98125.21
2022-09-07T01:34:26.330Z,98126.50
2022-09-07T01:35:53.538Z,98127.38
2022-09-07T01:37:18.395Z,98132.52
2022-09-07T01:38:50.073Z,98134.75
2022-09-07T01:40:09.052Z,98134.93
2022-09-07T01:41:41.780Z,98136.78
2022-09-07T01:42:59.665Z,98138.63
2022-09-07T01:44:25.294Z,98140.66
2022-09-07T01:45:32.100Z,98142.15
2022-09-07T01:47:02.296Z,98145.15
2022-09-07T01:48:09.759Z,98143.27
2022-09-07T01:49:29.898Z,98145.80
2022-09-07T01:50:40.163Z,98149.59
2022-09-07T01:51:47.087Z,98150.91
2022-09-07T01:52:57.163Z,98151.59
2022-09-07T01:54:35.627Z,98153.73
2022-09-07T01:55:50.959Z,98155.70
2022-09-07T01:57:01.968Z,98155.05
2022-09-07T01:58:21.972Z,98153.97
2022-09-07T01:59:40.669Z,98155.23
2022-09-07T02:01:21.628Z,98156.98
2022-09-07T02:02:31.282Z,98157.94
2022-09-07T02:04:12.037Z,98159.51
2022-09-07T02:05:23.246Z,98164.37
2022-09-07T02:07:08.574Z,98167.55
2022-09-07T02:08:33.891Z,98168.87
2022-09-07T02:09:52.684Z,98169.91
2022-09-07T02:11:02.745Z,98171.88
2022-09-07T02:12:18.049Z,98173.59
2022-09-07T02:13:41.702Z,98176.37
2022-09-07T02:15:03.691Z,98183.70
2022-09-07T02:16:18.180Z,98186.60
2022-09-07T02:17:37.329Z,98184.39
2022-09-07T02:18:49.830Z,98187.13
2022-09-07T02:20:05.374Z,98192.52
2022-09-07T02:21:12.469Z,98195.94
2022-09-07T02:22:21.952Z,98198.27
2022-09-07T02:23:32.283Z,98202.46
2022-09-07T02:24:42.494Z,98203.15
2022-09-07T02:25:52.932Z,98208.41
2022-09-07T02:27:00.392Z,98208.17
2022-09-07T02:28:16.225Z,98211.66
2022-09-07T02:29:25.229Z,98210.49
2022-09-07T02:30:34.420Z,98213.16
2022-09-07T02:31:41.083Z,98212.96
2022-09-07T02:32:48.105Z,98213.10
2022-09-07T02:33:55.708Z,98212.39
2022-09-07T02:35:03.512Z,98216.27
2022-09-07T02:36:13.809Z,98214.88
2022-09-07T02:37:22.425Z,98218.26
2022-09-07T02:38:29.473Z,98218.37
2022-09-07T02:39:36.071Z,98221.61
2022-09-07T02:40:44.087Z,98221.63
2022-09-07T02:41:50.991Z,98223.56
2022-09-07T02:43:01.068Z,98228.05
2022-09-07T02:44:17.221Z,98231.91
2022-09-07T02:45:24.794Z,98235.50
2022-09-07T02:47:02.723Z,98237.74
2022-09-07T02:48:12.495Z,98239.87
2022-09-07T02:49:32.521Z,98243.10
2022-09-07T02:51:04.336Z,98241.97
2022-09-07T02:53:06.305Z,98244.77
2022-09-07T02:54:49.290Z,98247.95
2022-09-07T02:56:37.889Z,98247.27
2022-09-07T02:57:48.498Z,98250.08
2022-09-07T02:59:04.374Z,98253.95
2022-09-07T03:00:18.864Z,98256.29
2022-09-07T03:01:31.451Z,98255.45
2022-09-07T03:02:52.255Z,98258.44
2022-09-07T03:04:22.785Z,98265.38
2022-09-07T03:05:49.126Z,98267.48
2022-09-07T03:07:05.584Z,98271.67
2022-09-07T03:08:13.696Z,98271.81
2022-09-07T03:09:24.621Z,98279.34
2022-09-07T03:10:34.055Z,98281.96
2022-09-07T03:11:40.953Z,98281.15
2022-09-07T03:12:50.620Z,98284.04
2022-09-07T03:14:21.297Z,98289.44
2022-09-07T03:15:28.198Z,98294.70
2022-09-07T03:16:35.083Z,98295.85
2022-09-07T03:17:44.760Z,98295.20
2022-09-07T03:18:54.139Z,98297.28
2022-09-07T03:20:03.125Z,98298.14
2022-09-07T03:21:12.247Z,98303.77
2022-09-07T03:22:19.234Z,98302.53
2022-09-07T03:23:25.845Z,98304.88
2022-09-07T03:24:33.205Z,98307.65
2022-09-07T03:25:39.419Z,98308.13
2022-09-07T03:26:47.153Z,98310.61
2022-09-07T03:27:53.460Z,98312.36
2022-09-07T03:29:00.750Z,98314.59
2022-09-07T03:30:08.919Z,98318.69
2022-09-07T03:31:17.971Z,98318.19
2022-09-07T03:32:31.972Z,98320.89
2022-09-07T03:33:45.691Z,98325.94
2022-09-07T03:35:18.625Z,98327.41
2022-09-07T03:36:25.541Z,98331.08
2022-09-07T03:37:33.208Z,98328.80
2022-09-07T03:38:41.418Z,98329.78
2022-09-07T03:39:49.134Z,98332.38
2022-09-07T03:41:05.377Z,98332.75
2022-09-07T03:42:20.100Z,98337.15
2022-09-07T03:43:28.152Z,98339.31
2022-09-07T03:44:46.434Z,98337.20
2022-09-07T03:46:06.999Z,98340.43
2022-09-07T03:47:18.334Z,98338.94
2022-09-07T03:48:32.773Z,98342.11
2022-09-07T03:49:40.755Z,98342.34
2022-09-07T03:51:03.703Z,98343.53
2022-09-07T03:52:17.974Z,98346.42
2022-09-07T03:53:26.480Z,98351.07
2022-09-07T03:54:37.830Z,98354.65
2022-09-07T03:55:58.136Z,98358.38
2022-09-07T03:57:04.371Z,98358.33
2022-09-07T03:58:12.124Z,98361.39
2022-09-07T03:59:21.084Z,98364.02
2022-09-07T04:00:28.726Z,98364.19
2022-09-07T04:01:34.461Z,98362.70
2022-09-07T04:02:42.436Z,98366.96
2022-09-07T04:03:48.599Z,98370.34
2022-09-07T04:04:57.445Z,98373.57
2022-09-07T04:06:03.404Z,98377.11
2022-09-07T04:07:10.814Z,98376.23
2022-09-07T04:08:17.032Z,98374.20
2022-09-07T04:09:23.466Z,98376.23
2022-09-07T04:10:29.350Z,98375.28
2022-09-07T04:11:36.387Z,98378.92
2022-09-07T04:12:43.227Z,98378.79
2022-09-07T04:13:50.893Z,98382.11
2022-09-07T04:14:59.067Z,98384.63
2022-09-07T04:16:15.062Z,98387.38
2022-09-07T04:17:21.970Z,98389.56
2022-09-07T04:18:29.861Z,98390.70
2022-09-07T04:19:37.530Z,98390.34
2022-09-07T04:20:44.662Z,98396.27
2022-09-07T04:21:51.044Z,98394.09
2022-09-07T04:22:58.158Z,98395.42
2022-09-07T04:24:05.596Z,98396.75
2022-09-07T04:25:15.887Z,98399.52
2022-09-07T04:26:36.723Z,98399.30
2022-09-07T04:27:46.575Z,98402.25
2022-09-07T04:28:54.173Z,98401.23
2022-09-07T04:30:03.317Z,98401.98
2022-09-07T04:31:11.185Z,98408.39
2022-09-07T04:32:18.411Z,98407.96
2022-09-07T04:33:25.169Z,98408.98
2022-09-07T04:34:32.983Z,98410.30
2022-09-07T04:35:43.568Z,98412.48
2022-09-07T04:36:50.490Z,98410.94
2022-09-07T04:37:56.310Z,98408.48
2022-09-07T04:39:06.499Z,98407.63
2022-09-07T04:40:13.483Z,98413.17
2022-09-07T04:41:21.472Z,98417.59
2022-09-07T04:42:28.992Z,98415.96
2022-09-07T04:43:36.219Z,98414.04
2022-09-07T04:44:43.487Z,98416.48
2022-09-07T04:45:49.364Z,98415.68
2022-09-07T04:46:58.782Z,98414.34
2022-09-07T04:48:06.026Z,98419.02
2022-09-07T04:49:14.129Z,98417.06
2022-09-07T04:50:22.993Z,98417.38
2022-09-07T04:51:32.236Z,98416.63
2022-09-07T04:52:40.324Z,98418.70
2022-09-07T04:53:49.233Z,98419.06
2022-09-07T04:54:55.945Z,98417.30
2022-09-07T04:56:04.991Z,98418.77
2022-09-07T04:57:15.970Z,98417.92
2022-09-07T04:58:25.887Z,98417.66
2022-09-07T04:59:35.894Z,98417.75
2022-09-07T05:00:43.216Z,98417.96
2022-09-07T05:01:49.905Z,98418.88
2022-09-07T05:02:56.346Z,98418.55
2022-09-07T05:04:05.058Z,98415.41
2022-09-07T05:05:12.225Z,98413.80
2022-09-07T05:06:19.968Z,98415.65
2022-09-07T05:07:27.142Z,98415.02
2022-09-07T05:08:39.396Z,98417.70
2022-09-07T05:09:48.986Z,98420.91
2022-09-07T05:11:01.466Z,98420.70
2022-09-07T05:12:08.047Z,98421.97
2022-09-07T05:13:15.880Z,98423.52
2022-09-07T05:14:22.612Z,98424.43
2022-09-07T05:15:32.931Z,98429.45
2022-09-07T05:16:39.988Z,98433.52
2022-09-07T05:17:46.750Z,98433.08
2022-09-07T05:18:54.222Z,98433.19
2022-09-07T05:20:01.720Z,98431.48
2022-09-07T05:21:16.781Z,98431.70
2022-09-07T05:22:23.507Z,98433.52
2022-09-07T05:23:32.174Z,98435.54
2022-09-07T05:24:40.587Z,98436.92
2022-09-07T05:25:48.520Z,98434.26
2022-09-07T05:26:54.776Z,98435.16
2022-09-07T05:28:00.567Z,98431.56
2022-09-07T05:32:03.405Z,98429.61
2022-09-07T05:33:11.511Z,98427.80
2022-09-07T05:34:32.742Z,98430.20
2022-09-07T05:35:44.443Z,98428.91
2022-09-07T05:36:52.157Z,98429.39
2022-09-07T05:37:58.698Z,98430.18
2022-09-07T05:39:07.974Z,98428.25
2022-09-07T05:40:16.699Z,98431.23
2022-09-07T05:41:27.929Z,98430.91
2022-09-07T05:42:37.674Z,98429.10
2022-09-07T05:45:18.374Z,98428.52
2022-09-07T05:46:26.494Z,98430.66
2022-09-07T05:47:34.999Z,98434.49
2022-09-07T05:48:41.747Z,98433.14
2022-09-07T05:49:52.950Z,98434.31
2022-09-07T05:51:03.977Z,98434.47
2022-09-07T05:52:14.952Z,98434.95
2022-09-07T05:53:23.562Z,98438.98
2022-09-07T05:54:31.849Z,98438.00
2022-09-07T05:55:41.927Z,98438.98
2022-09-07T05:56:48.182Z,98442.08
2022-09-07T05:57:55.536Z,98440.46
2022-09-07T05:59:03.056Z,98442.61
2022-09-07T06:00:10.222Z,98442.63
2022-09-07T06:01:19.016Z,98448.30
2022-09-07T06:02:25.632Z,98447.27
2022-09-07T06:03:33.207Z,98449.76
2022-09-07T06:04:41.969Z,98446.33
2022-09-07T06:05:50.330Z,98448.63
2022-09-07T06:07:20.702Z,98448.98
2022-09-07T06:08:24.180Z,98451.34
2022-09-07T06:09:32.464Z,98450.25
2022-09-07T06:11:50.099Z,98447.92
2022-09-07T06:12:56.142Z,98447.05
2022-09-07T06:14:04.869Z,98446.02
2022-09-07T06:15:12.012Z,98446.50
2022-09-07T06:16:18.594Z,98445.68
2022-09-07T06:17:27.988Z,98441.41
2022-09-07T06:18:36.779Z,98442.72
2022-09-07T06:19:46.208Z,98444.09
2022-09-07T06:20:54.886Z,98447.21
2022-09-07T06:22:03.575Z,98447.52
2022-09-07T06:23:11.536Z,98449.42
2022-09-07T06:24:18.938Z,98450.73
2022-09-07T06:25:26.909Z,98454.98
2022-09-07T06:26:35.170Z,98456.80
2022-09-07T06:27:42.085Z,98457.13
2022-09-07T06:28:51.376Z,98460.30
2022-09-07T06:30:01.982Z,98460.44
2022-09-07T06:31:09.097Z,98460.50
2022-09-07T06:33:47.261Z,98458.73
2022-09-07T06:34:54.409Z,98451.98
2022-09-07T06:36:05.899Z,98452.64
2022-09-07T06:37:13.479Z,98453.66
2022-09-07T06:38:21.671Z,98455.34
2022-09-07T06:39:30.042Z,98455.48
2022-09-07T06:40:39.108Z,98463.13
2022-09-07T06:42:01.450Z,98463.15
2022-09-07T06:43:10.264Z,98461.09
2022-09-07T06:44:20.429Z,98466.83
2022-09-07T06:45:29.234Z,98468.81
2022-09-07T06:48:08.613Z,98467.70
2022-09-07T06:49:17.020Z,98468.32
2022-09-07T06:50:23.253Z,98468.92
2022-09-07T06:51:31.645Z,98470.08
2022-09-07T06:55:44.230Z,98471.50
2022-09-07T06:56:51.520Z,98471.19
2022-09-07T06:58:00.406Z,98469.98
2022-09-07T06:59:07.704Z,98470.39
2022-09-07T07:00:15.773Z,98473.70
2022-09-07T07:01:22.168Z,98473.12
2022-09-07T07:02:30.227Z,98470.75
2022-09-07T07:03:37.119Z,98473.54
2022-09-07T07:04:43.617Z,98470.60
2022-09-07T07:05:56.866Z,98472.27
2022-09-07T07:07:03.537Z,98473.67
2022-09-07T07:08:12.416Z,98476.04
2022-09-07T07:09:20.199Z,98474.14
2022-09-07T07:10:29.353Z,98474.39
2022-09-07T07:11:37.824Z,98478.83
2022-09-07T07:13:49.971Z,98476.27
2022-09-07T07:14:55.647Z,98475.47
2022-09-07T07:16:17.683Z,98475.69
2022-09-07T07:17:25.913Z,98475.09
2022-09-07T07:18:33.847Z,98476.60
2022-09-07T07:19:41.512Z,98480.41
2022-09-07T07:20:47.923Z,98483.40
2022-09-07T07:22:14.410Z,98485.89
2022-09-07T07:23:23.903Z,98494.20
2022-09-07T07:24:30.966Z,98494.54
2022-09-07T07:25:38.162Z,98496.88
2022-09-07T07:26:49.236Z,98497.25
2022-09-07T07:29:30.209Z,98500.25
2022-09-07T07:30:36.523Z,98500.36
2022-09-07T07:31:44.839Z,98503.73
2022-09-07T07:32:51.038Z,98506.40
2022-09-07T07:33:58.975Z,98506.83
2022-09-07T07:35:05.316Z,98500.80
2022-09-07T07:36:25.291Z,98503.73
2022-09-07T07:37:34.302Z,98499.48
2022-09-07T07:43:01.603Z,98504.41
2022-09-07T07:44:10.998Z,98503.73
2022-09-07T07:46:51.706Z,98509.70
2022-09-07T07:48:00.907Z,98505.80
2022-09-07T07:49:07.144Z,98500.13
2022-09-07T08:03:20.632Z,98502.48
2022-09-07T08:04:30.192Z,98498.63
2022-09-07T08:05:38.695Z,98497.67
2022-09-07T08:06:44.978Z,98501.30
2022-09-07T08:07:51.097Z,98499.92
2022-09-07T08:08:59.154Z,98503.48
2022-09-07T08:10:05.703Z,98500.07
2022-09-07T08:11:18.440Z,98496.17
2022-09-07T08:12:29.661Z,98490.86
2022-09-07T08:13:38.243Z,98486.88
2022-09-07T08:14:45.616Z,98481.49
2022-09-07T08:15:55.783Z,98481.04
2022-09-07T08:17:03.935Z,98475.64
2022-09-07T08:18:13.844Z,98472.73
2022-09-07T08:19:22.373Z,98469.09
2022-09-07T08:20:28.975Z,98468.74
2022-09-07T08:21:37.784Z,98468.80
2022-09-07T08:22:44.416Z,98465.29
2022-09-07T08:23:50.726Z,98458.81
2022-09-07T08:25:00.949Z,98457.48
2022-09-07T08:26:09.061Z,98454.95
2022-09-07T08:27:19.561Z,98450.66
2022-09-07T08:28:30.975Z,98451.38
2022-09-07T08:29:37.861Z,98448.60
2022-09-07T08:30:51.735Z,98449.71
2022-09-07T08:31:58.499Z,98452.12
2022-09-07T08:33:05.655Z,98455.02
2022-09-07T08:34:17.108Z,98458.50
2022-09-07T08:35:23.205Z,98463.00
2022-09-07T08:36:30.726Z,98464.14
2022-09-07T08:37:40.350Z,98470.28
2022-09-07T08:38:48.642Z,98471.05
2022-09-07T08:39:54.773Z,98472.11
2022-09-07T08:41:04.517Z,98472.39
2022-09-07T08:42:55.200Z,98471.08
2022-09-07T08:44:06.090Z,98466.90
2022-09-07T08:45:17.957Z,98468.61
2022-09-07T08:46:53.927Z,98471.46
2022-09-07T08:48:03.092Z,98468.11
2022-09-07T08:49:49.784Z,98467.77
2022-09-07T08:51:05.372Z,98466.66
2022-09-07T08:52:30.828Z,98463.25
2022-09-07T08:53:45.382Z,98458.82
2022-09-07T08:55:27.387Z,98460.13
2022-09-07T08:56:38.563Z,98459.90
2022-09-07T08:57:48.538Z,98458.27
2022-09-07T08:58:55.778Z,98459.90
2022-09-07T09:00:12.871Z,98458.90
2022-09-07T09:01:31.994Z,98460.54
2022-09-07T09:02:44.414Z,98458.27
2022-09-07T09:05:25.166Z,98456.17
2022-09-07T09:06:55.431Z,98456.08
2022-09-07T09:08:25.682Z,98457.01
2022-09-07T09:09:44.485Z,98458.73
2022-09-07T09:11:19.417Z,98458.70
2022-09-07T09:12:46.498Z,98460.11
2022-09-07T09:14:37.298Z,98458.63
2022-09-07T09:16:20.620Z,98456.91
2022-09-07T09:17:45.818Z,98456.49
2022-09-07T09:18:59.829Z,98457.98
2022-09-07T09:20:15.357Z,98458.60
2022-09-07T09:21:25.305Z,98458.18
2022-09-07T09:22:32.085Z,98462.74
2022-09-07T09:23:46.684Z,98459.54
2022-09-07T09:25:18.757Z,98459.10
2022-09-07T09:26:26.228Z,98461.98
2022-09-07T09:27:32.386Z,98460.44
2022-09-07T09:28:38.558Z,98456.96
2022-09-07T09:29:48.105Z,98456.38
2022-09-07T09:30:54.240Z,98453.83
2022-09-07T09:32:00.561Z,98452.71
2022-09-07T09:33:34.272Z,98453.56
2022-09-07T09:34:41.109Z,98456.05
2022-09-07T09:35:52.224Z,98455.73
2022-09-07T09:37:01.941Z,98456.83
2022-09-07T09:38:33.564Z,98456.13
2022-09-07T09:39:43.438Z,98456.55
2022-09-07T09:40:53.645Z,98454.63
2022-09-07T09:42:02.881Z,98455.35
2022-09-07T09:43:30.391Z,98452.60
2022-09-07T09:44:40.062Z,98452.89
2022-09-07T09:47:33.651Z,98449.70
2022-09-07T09:48:43.071Z,98446.13
2022-09-07T09:49:54.048Z,98447.36
2022-09-07T09:52:36.283Z,98445.27
2022-09-07T09:54:07.296Z,98449.27
2022-09-07T09:55:34.947Z,98448.21
2022-09-07T09:56:46.863Z,98450.08
2022-09-07T10:01:33.328Z,98453.87
2022-09-07T10:04:24.394Z,98448.02
2022-09-07T10:05:37.759Z,98448.44
2022-09-07T10:06:50.718Z,98449.05
2022-09-07T10:07:57.742Z,98451.06
2022-09-07T10:09:07.481Z,98451.66
2022-09-07T10:10:20.730Z,98453.38
2022-09-07T10:13:22.359Z,98458.70
2022-09-07T10:14:33.355Z,98456.36
2022-09-07T10:15:41.585Z,98453.71
2022-09-07T10:16:48.936Z,98456.12
2022-09-07T10:17:54.825Z,98453.70
2022-09-07T10:19:03.916Z,98455.27
2022-09-07T10:20:21.251Z,98457.45
2022-09-07T10:21:30.793Z,98458.14
2022-09-07T10:22:39.584Z,98455.30
2022-09-07T10:23:46.337Z,98452.87
2022-09-07T10:24:52.527Z,98452.98
2022-09-07T10:26:00.507Z,98453.35
2022-09-07T10:27:33.508Z,98454.73
2022-09-07T10:30:19.377Z,98454.25
2022-09-07T10:31:31.350Z,98453.55
2022-09-07T10:32:57.126Z,98457.62
2022-09-07T10:34:26.215Z,98456.95
2022-09-07T10:36:07.561Z,98454.89
2022-09-07T10:37:27.524Z,98452.98
2022-09-07T10:38:39.272Z,98455.54
2022-09-07T10:40:04.754Z,98453.40
2022-09-07T10:41:12.499Z,98452.29
2022-09-07T10:42:35.170Z,98453.55
2022-09-07T10:43:45.807Z,98454.64
2022-09-07T10:44:58.345Z,98451.27
2022-09-07T10:46:59.372Z,98453.19
2022-09-07T10:48:13.951Z,98452.00
2022-09-07T10:51:57.653Z,98446.35
2022-09-07T10:53:43.091Z,98443.43
2022-09-07T10:54:57.344Z,98443.64
2022-09-07T10:56:29.190Z,98448.10
2022-09-07T10:57:54.867Z,98447.62
2022-09-07T10:59:07.826Z,98449.36
2022-09-07T11:00:16.560Z,98448.77
2022-09-07T11:01:42.641Z,98445.25
2022-09-07T11:03:27.116Z,98441.15
2022-09-07T11:05:04.759Z,98443.50
2022-09-07T11:06:36.897Z,98445.73
2022-09-07T11:07:50.337Z,98447.52
2022-09-07T11:09:32.788Z,98452.60
2022-09-07T11:10:52.075Z,98455.08
2022-09-07T11:12:16.840Z,98454.53
2022-09-07T11:13:26.536Z,98451.83
2022-09-07T11:15:13.876Z,98452.19
2022-09-07T11:18:06.016Z,98450.02
2022-09-07T11:20:56.098Z,98454.77
2022-09-07T11:22:07.473Z,98459.25
2022-09-07T11:23:27.485Z,98459.51
2022-09-07T11:26:24.642Z,98459.14
2022-09-07T11:27:55.578Z,98458.28
2022-09-07T11:30:47.552Z,98455.33
2022-09-07T11:32:04.414Z,98455.16
2022-09-07T11:34:23.641Z,98457.23
2022-09-07T11:35:39.960Z,98460.27
2022-09-07T11:37:08.395Z,98457.68
2022-09-07T11:38:20.681Z,98458.55
2022-09-07T11:39:46.791Z,98454.86
2022-09-07T11:41:15.234Z,98455.50
2022-09-07T11:42:52.449Z,98450.33
2022-09-07T11:44:19.749Z,98446.64
2022-09-07T11:46:06.251Z,98446.39
2022-09-07T11:48:00.147Z,98445.15
2022-09-07T11:49:13.887Z,98446.53
2022-09-07T11:50:23.894Z,98447.64
2022-09-07T11:52:05.501Z,98444.50
2022-09-07T11:53:33.590Z,98440.95
2022-09-07T11:54:49.012Z,98438.50
2022-09-07T11:56:02.041Z,98437.77
2022-09-07T11:57:17.142Z,98439.83
2022-09-07T11:58:29.908Z,98444.77
2022-09-07T12:00:12.951Z,98449.02
2022-09-07T12:01:43.202Z,98454.57
2022-09-07T12:03:01.334Z,98457.51
2022-09-07T12:04:31.114Z,98460.48
2022-09-07T12:06:01.063Z,98463.20
2022-09-07T12:07:37.089Z,98470.44
2022-09-07T12:09:04.939Z,98475.78
2022-09-07T12:10:32.691Z,98479.61
2022-09-07T12:12:03.522Z,98483.89
2022-09-07T12:13:39.071Z,98484.27
2022-09-07T12:15:03.441Z,98490.61
2022-09-07T12:16:35.617Z,98489.36
2022-09-07T12:17:55.028Z,98497.02
2022-09-07T12:19:27.017Z,98502.33
2022-09-07T12:20:49.077Z,98502.21
2022-09-07T12:21:55.196Z,98505.63
2022-09-07T12:23:05.404Z,98508.30
2022-09-07T12:24:39.099Z,98508.10
2022-09-07T12:25:49.835Z,98509.23
2022-09-07T12:26:56.109Z,98514.27
2022-09-07T12:28:01.947Z,98510.05
2022-09-07T12:29:25.214Z,98512.05
2022-09-07T12:30:36.857Z,98514.10
2022-09-07T12:31:57.701Z,98514.02
2022-09-07T12:33:24.769Z,98515.92
2022-09-07T12:34:33.688Z,98515.85
2022-09-07T12:35:41.141Z,98517.09
2022-09-07T12:36:52.589Z,98518.75
2022-09-07T12:37:59.827Z,98518.89
2022-09-07T12:39:29.469Z,98519.06
2022-09-07T12:40:37.103Z,98517.23
2022-09-07T12:41:46.953Z,98516.48
2022-09-07T12:43:14.461Z,98511.15
2022-09-07T12:44:26.097Z,98512.99
2022-09-07T12:45:39.150Z,98514.30
2022-09-07T12:46:49.568Z,98512.68
2022-09-07T12:47:58.852Z,98513.61
2022-09-07T12:49:41.606Z,98512.45
2022-09-07T12:51:59.359Z,98514.38
2022-09-07T12:52:48.496Z,98514.80
2022-09-07T12:53:57.905Z,98513.23
2022-09-07T12:57:29.846Z,98512.08
2022-09-07T12:58:46.658Z,98511.45
2022-09-07T13:00:05.183Z,98515.40
2022-09-07T13:01:23.516Z,98515.23
2022-09-07T13:03:49.290Z,98516.02
2022-09-07T13:04:59.213Z,98516.54
2022-09-07T13:07:02.679Z,98519.64
2022-09-07T13:08:50.523Z,98522.02
2022-09-07T13:10:29.495Z,98523.90
2022-09-07T13:11:39.488Z,98529.11
2022-09-07T13:12:53.188Z,98531.59
2022-09-07T13:14:08.477Z,98535.67
2022-09-07T13:15:52.351Z,98536.79
2022-09-07T13:17:36.246Z,98538.60
2022-09-07T13:18:47.057Z,98537.42
2022-09-07T13:19:56.694Z,98537.11
2022-09-07T13:21:14.620Z,98536.50
2022-09-07T13:22:37.702Z,98537.95
2022-09-07T13:24:48.110Z,98537.65
2022-09-07T13:25:50.491Z,98539.31
2022-09-07T13:27:22.895Z,98542.98
2022-09-07T13:28:56.825Z,98542.82
2022-09-07T13:30:13.209Z,98546.17
2022-09-07T13:31:57.591Z,98544.47
2022-09-07T13:33:27.256Z,98547.61
2022-09-07T13:34:35.629Z,98548.50
2022-09-07T13:35:46.251Z,98546.20
2022-09-07T13:36:54.490Z,98546.73
2022-09-07T13:38:06.763Z,98551.98
2022-09-07T13:39:19.650Z,98552.04
2022-09-07T13:40:35.551Z,98553.46
2022-09-07T13:41:56.848Z,98554.09
2022-09-07T13:43:03.226Z,98555.26
2022-09-07T13:44:25.929Z,98556.87
2022-09-07T13:45:34.985Z,98561.10
2022-09-07T13:46:50.704Z,98563.56
2022-09-07T13:48:21.107Z,98562.77
2022-09-07T13:49:35.208Z,98561.36
2022-09-07T13:50:48.287Z,98559.98
2022-09-07T13:52:01.527Z,98560.94
2022-09-07T13:53:16.356Z,98565.31
2022-09-07T13:54:59.775Z,98568.30
2022-09-07T13:56:25.609Z,98568.98
2022-09-07T13:58:09.273Z,98571.29
2022-09-07T13:59:28.765Z,98571.59
2022-09-07T14:00:34.772Z,98571.99
2022-09-07T14:01:45.520Z,98570.31
2022-09-07T14:02:56.773Z,98569.52
2022-09-07T14:04:08.111Z,98571.46
2022-09-07T14:05:19.224Z,98571.09
2022-09-07T14:06:36.461Z,98570.66
2022-09-07T14:07:46.626Z,98572.29
2022-09-07T14:09:00.743Z,98573.11
2022-09-07T14:10:25.747Z,98572.70
2022-09-07T14:11:55.269Z,98572.94
2022-09-07T14:13:13.561Z,98572.67
2022-09-07T14:14:27.660Z,98572.49
2022-09-07T14:15:40.753Z,98575.98
2022-09-07T14:16:56.406Z,98578.25
2022-09-07T14:18:15.377Z,98576.80
2022-09-07T14:19:28.090Z,98581.70
2022-09-07T14:20:43.371Z,98582.48
2022-09-07T14:22:20.167Z,98586.67
2022-09-07T14:23:34.025Z,98590.46
2022-09-07T14:25:03.132Z,98591.87
2022-09-07T14:26:23.879Z,98593.45
2022-09-07T14:27:36.081Z,98593.34
2022-09-07T14:28:43.912Z,98588.44
2022-09-07T14:29:53.193Z,98592.43
2022-09-07T14:31:00.854Z,98593.50
2022-09-07T14:32:10.991Z,98594.29
2022-09-07T14:33:23.383Z,98596.27
2022-09-07T14:34:35.837Z,98596.52
2022-09-07T14:35:46.094Z,98598.64
2022-09-07T14:36:53.256Z,98597.65
2022-09-07T14:39:55.810Z,98601.39
2022-09-07T14:41:06.322Z,98601.20
2022-09-07T14:42:16.729Z,98603.79
2022-09-07T14:43:37.689Z,98599.35
2022-09-07T14:44:46.208Z,98597.73
2022-09-07T14:45:53.263Z,98598.27
2022-09-07T14:47:09.631Z,98599.98
2022-09-07T14:48:16.565Z,98597.71
2022-09-07T14:49:24.810Z,98602.80
2022-09-07T14:50:34.897Z,98604.32
2022-09-07T14:51:44.759Z,98604.54
2022-09-07T14:54:28.050Z,98605.48
2022-09-07T14:55:46.495Z,98606.63
2022-09-07T14:57:33.114Z,98607.42
2022-09-07T14:58:40.928Z,98605.61
2022-09-07T14:59:48.217Z,98608.02
2022-09-07T15:02:38.676Z,98608.87
2022-09-07T15:03:51.197Z,98609.90
2022-09-07T15:05:31.532Z,98610.52
2022-09-07T15:08:21.362Z,98611.31
2022-09-07T15:09:38.887Z,98610.77
2022-09-07T15:11:33.006Z,98607.00
2022-09-07T15:12:39.294Z,98610.30
2022-09-07T15:13:47.299Z,98609.83
2022-09-07T15:14:55.622Z,98611.92
2022-09-07T15:16:04.793Z,98608.36
2022-09-07T15:17:49.817Z,98611.96
2022-09-07T15:19:03.703Z,98610.02
2022-09-07T15:20:34.811Z,98611.77
2022-09-07T15:21:42.585Z,98611.31
2022-09-07T15:22:52.937Z,98615.59
2022-09-07T15:24:11.798Z,98616.40
2022-09-07T15:25:21.783Z,98617.27
2022-09-07T15:30:02.185Z,98618.20
2022-09-07T15:31:54.584Z,98618.38
2022-09-07T15:32:59.349Z,98616.25
2022-09-07T15:34:13.179Z,98616.09
2022-09-07T15:35:20.944Z,98616.17
2022-09-07T15:36:31.878Z,98616.17
2022-09-07T15:39:20.908Z,98617.76
2022-09-07T15:40:27.997Z,98611.10
2022-09-07T15:41:34.849Z,98615.88
2022-09-07T15:43:08.519Z,98617.45
2022-09-07T15:44:15.880Z,98616.73
2022-09-07T15:45:29.260Z,98618.19
2022-09-07T15:46:37.166Z,98613.98
2022-09-07T15:47:50.844Z,98614.55